createdAt,value
2023-04-18T00:01:24.990Z,2.65
2023-04-18T00:06:27.132Z,5.70
2023-04-18T00:11:30.289Z,4.50
2023-04-18T00:16:33.417Z,3.37
2023-04-18T00:21:37.215Z,4.63
2023-04-18T00:26:39.302Z,3.62
2023-04-18T00:31:41.383Z,4.55
2023-04-18T00:36:43.486Z,3.90
2023-04-18T00:41:45.686Z,3.83
2023-04-18T00:46:48.346Z,3.90
2023-04-18T00:51:51.568Z,4.22
2023-04-18T00:56:53.894Z,4.00
2023-04-18T01:01:56.106Z,4.25
2023-04-18T01:06:58.628Z,4.70
2023-04-18T01:12:01.873Z,5.03
2023-04-18T01:17:03.937Z,3.95
2023-04-18T01:22:07.187Z,4.72
2023-04-18T01:27:13.400Z,4.10
2023-04-18T01:32:17.660Z,5.63
2023-04-18T01:37:19.751Z,5.45
2023-04-18T01:42:21.905Z,4.47
2023-04-18T01:47:24.073Z,5.10
2023-04-18T01:52:27.949Z,5.95
2023-04-18T01:57:30.839Z,4.40
2023-04-18T02:02:33.119Z,4.27
2023-04-18T02:07:35.348Z,4.32
2023-04-18T02:12:37.431Z,5.28
2023-04-18T02:17:39.658Z,5.80
2023-04-18T02:22:41.795Z,3.87
2023-04-18T02:27:44.052Z,5.35
2023-04-18T02:32:46.907Z,5.07
2023-04-18T02:37:49.435Z,4.13
2023-04-18T02:42:51.495Z,5.62
2023-04-18T02:47:56.186Z,4.57
2023-04-18T02:52:58.667Z,5.03
2023-04-18T02:58:00.752Z,7.70
2023-04-18T03:03:02.947Z,5.15
2023-04-18T03:08:05.304Z,5.77
2023-04-18T03:13:07.389Z,5.87
2023-04-18T03:18:09.528Z,5.47
2023-04-18T03:23:11.597Z,5.57
2023-04-18T03:28:13.664Z,6.97
2023-04-18T03:33:17.131Z,6.05
2023-04-18T03:38:19.649Z,6.10
2023-04-18T03:43:21.748Z,6.17
2023-04-18T03:48:23.876Z,6.65
2023-04-18T03:53:25.997Z,6.85
2023-04-18T03:58:28.084Z,7.80
2023-04-18T04:03:30.206Z,7.07
2023-04-18T04:08:32.400Z,8.43
2023-04-18T04:13:34.556Z,9.27
2023-04-18T04:18:36.638Z,7.67
2023-04-18T04:23:38.755Z,7.50
2023-04-18T04:28:42.814Z,7.70
2023-04-18T04:33:45.016Z,9.70
2023-04-18T04:38:47.277Z,9.77
2023-04-18T04:43:51.153Z,7.93
2023-04-18T04:48:54.443Z,9.77
2023-04-18T04:53:56.540Z,8.93
2023-04-18T04:58:58.684Z,9.00
2023-04-18T05:04:00.978Z,9.90
2023-04-18T05:09:03.212Z,16.53
2023-04-18T05:14:05.411Z,10.57
2023-04-18T05:19:07.508Z,10.15
2023-04-18T05:24:09.938Z,11.00
2023-04-18T05:29:12.131Z,9.90
2023-04-18T05:34:14.476Z,7.82
2023-04-18T05:39:17.042Z,8.30
2023-04-18T05:44:19.942Z,7.63
2023-04-18T05:49:22.192Z,9.63
2023-04-18T05:54:27.590Z,10.32
2023-04-18T05:59:29.824Z,8.07
2023-04-18T06:04:32.083Z,8.13
2023-04-18T06:09:34.409Z,10.60
2023-04-18T06:14:36.572Z,7.30
2023-04-18T06:19:39.620Z,7.97
2023-04-18T06:24:41.705Z,7.45
2023-04-18T06:29:44.012Z,8.47
2023-04-18T06:34:46.076Z,5.63
2023-04-18T06:39:48.221Z,5.12
2023-04-18T06:44:50.678Z,5.62
2023-04-18T06:49:52.748Z,6.10
2023-04-18T06:54:54.816Z,5.95
2023-04-18T06:59:56.890Z,5.53
2023-04-18T07:04:58.998Z,6.10
2023-04-18T07:10:01.561Z,5.75
2023-04-18T07:15:04.887Z,5.55
2023-04-18T07:20:07.672Z,5.20
2023-04-18T07:25:09.909Z,6.27
2023-04-18T07:30:12.376Z,4.75
2023-04-18T07:35:14.448Z,9.40
2023-04-18T07:40:17.087Z,6.40
2023-04-18T07:45:19.213Z,7.05
2023-04-18T07:50:21.376Z,4.22
2023-04-18T07:55:23.934Z,3.13
2023-04-18T08:00:26.553Z,3.55
2023-04-18T08:05:28.908Z,3.90
2023-04-18T08:10:31.045Z,5.70
2023-04-18T08:15:33.190Z,4.80
2023-04-18T08:20:37.298Z,3.47
2023-04-18T08:25:39.416Z,2.72
2023-04-18T08:30:42.378Z,4.47
2023-04-18T08:35:44.552Z,4.12
2023-04-18T08:40:47.150Z,3.87
2023-04-18T08:45:49.277Z,4.93
2023-04-18T08:50:57.335Z,2.30
2023-04-18T08:56:00.384Z,3.45
2023-04-18T09:01:02.499Z,4.33
2023-04-18T09:06:13.857Z,6.53
2023-04-18T09:11:28.825Z,3.55
2023-04-18T09:16:47.012Z,3.85
2023-04-18T09:21:58.164Z,3.13
2023-04-18T09:27:01.255Z,3.33
2023-04-18T09:32:03.415Z,3.87
2023-04-18T09:37:07.801Z,5.10
2023-04-18T09:42:14.464Z,3.53
2023-04-18T09:47:16.548Z,3.75
2023-04-18T09:52:19.793Z,4.00
2023-04-18T09:57:22.548Z,3.40
2023-04-18T10:02:28.782Z,4.18
2023-04-18T10:07:32.517Z,2.50
2023-04-18T10:12:36.920Z,3.50
2023-04-18T10:18:04.200Z,1.77
2023-04-18T10:23:36.091Z,4.47
2023-04-18T10:28:54.760Z,2.50
2023-04-18T10:39:25.621Z,4.57
2023-04-18T10:44:27.978Z,2.27
2023-04-18T10:49:32.851Z,3.13
2023-04-18T10:54:47.263Z,4.00
2023-04-18T10:59:51.846Z,3.10
2023-04-18T11:04:56.248Z,2.23
2023-04-18T11:09:58.411Z,2.22
2023-04-18T11:15:02.669Z,3.10
2023-04-18T11:20:13.729Z,3.60
2023-04-18T11:25:17.093Z,2.22
2023-04-18T11:30:19.348Z,2.58
2023-04-18T11:35:21.502Z,2.80
2023-04-18T11:40:23.689Z,3.17
2023-04-18T11:45:25.905Z,2.20
2023-04-18T11:50:28.078Z,2.97
2023-04-18T11:55:30.289Z,3.33
2023-04-18T12:00:41.683Z,2.30
2023-04-18T12:05:44.171Z,2.08
2023-04-18T12:10:48.227Z,3.57
2023-04-18T12:15:50.561Z,3.40
2023-04-18T12:20:54.487Z,3.08
2023-04-18T12:26:01.439Z,3.10
2023-04-18T12:31:07.700Z,3.20
2023-04-18T12:36:10.506Z,3.50
2023-04-18T12:41:12.697Z,3.33
2023-04-18T12:46:14.856Z,1.73
2023-04-18T12:51:17.293Z,6.15
2023-04-18T12:56:19.379Z,3.95
2023-04-18T13:01:22.050Z,2.67
2023-04-18T13:06:24.618Z,1.42
2023-04-18T13:11:28.640Z,1.75
2023-04-18T13:16:31.208Z,3.83
2023-04-18T13:21:33.466Z,1.90
2023-04-18T13:26:37.504Z,2.25
2023-04-18T13:31:39.709Z,3.72
2023-04-18T13:36:41.902Z,5.40
2023-04-18T13:41:44.580Z,4.62
2023-04-18T13:46:46.814Z,3.70
2023-04-18T13:51:50.565Z,4.43
2023-04-18T13:56:57.488Z,2.62
2023-04-18T14:01:59.763Z,1.98
2023-04-18T14:07:03.492Z,6.97
2023-04-18T14:12:06.091Z,2.20
2023-04-18T14:17:08.188Z,3.83
2023-04-18T14:22:10.637Z,5.72
2023-04-18T14:27:12.818Z,5.67
2023-04-18T14:32:14.977Z,2.97
2023-04-18T14:37:17.810Z,4.72
2023-04-18T14:42:19.978Z,2.27
2023-04-18T14:47:24.365Z,5.93
2023-04-18T14:52:26.619Z,6.25
2023-04-18T14:57:31.713Z,6.17
2023-04-18T15:02:33.999Z,3.17
2023-04-18T15:07:37.924Z,3.22
2023-04-18T15:12:40.122Z,3.25
2023-04-18T15:17:42.262Z,5.23
2023-04-18T15:22:44.393Z,3.58
2023-04-18T15:27:46.486Z,2.92
2023-04-18T15:32:48.706Z,4.57
2023-04-18T15:37:51.660Z,3.72
2023-04-18T15:42:54.503Z,2.78
2023-04-18T15:47:56.987Z,3.90
2023-04-18T15:52:59.125Z,3.83
2023-04-18T15:58:01.598Z,3.45
2023-04-18T16:03:04.867Z,2.80
2023-04-18T16:08:09.530Z,3.77
2023-04-18T16:13:11.647Z,4.37
2023-04-18T16:18:13.765Z,2.92
2023-04-18T16:23:15.831Z,3.90
2023-04-18T16:28:17.895Z,3.30
2023-04-18T16:33:24.499Z,3.53
2023-04-18T16:38:27.435Z,4.87
2023-04-18T16:43:31.077Z,7.03
2023-04-18T16:48:33.202Z,3.65
2023-04-18T16:53:36.076Z,4.53
2023-04-18T16:58:38.125Z,3.47
2023-04-18T17:03:40.354Z,3.97
2023-04-18T17:08:42.597Z,3.92
2023-04-18T17:13:44.679Z,2.50
2023-04-18T17:18:46.852Z,4.07
2023-04-18T17:23:48.999Z,3.37
2023-04-18T17:28:51.362Z,5.27
2023-04-18T17:33:54.574Z,10.43
2023-04-18T17:38:58.268Z,7.00
2023-04-18T17:44:00.583Z,4.05
2023-04-18T17:49:02.794Z,5.23
2023-04-18T17:54:05.503Z,4.93
2023-04-18T17:59:07.670Z,6.07
2023-04-18T18:04:09.862Z,6.30
2023-04-18T18:09:12.916Z,7.53
2023-04-18T18:14:15.714Z,5.65
2023-04-18T18:19:17.908Z,5.37
2023-04-18T18:24:20.101Z,5.80
2023-04-18T18:29:22.301Z,6.85
2023-04-18T18:34:24.410Z,5.45
2023-04-18T18:39:26.534Z,5.63
2023-04-18T18:44:28.680Z,5.68
2023-04-18T18:49:30.968Z,7.68
2023-04-18T18:54:33.053Z,6.40
2023-04-18T18:59:35.193Z,7.32
2023-04-18T19:04:37.805Z,5.43
2023-04-18T19:09:39.979Z,9.67
2023-04-18T19:14:42.515Z,6.63
2023-04-18T19:19:44.598Z,5.30
2023-04-18T19:24:46.963Z,6.60
2023-04-18T19:29:49.091Z,10.60
2023-04-18T19:34:51.488Z,7.15
2023-04-18T19:39:53.581Z,7.75
2023-04-18T19:44:56.488Z,7.30
2023-04-18T19:49:58.608Z,11.60
2023-04-18T19:55:00.681Z,7.32
2023-04-18T20:00:02.940Z,6.07
2023-04-18T20:05:06.420Z,7.83
2023-04-18T20:10:09.097Z,7.30
2023-04-18T20:15:11.875Z,4.62
2023-04-18T20:20:14.093Z,5.60
2023-04-18T20:25:16.468Z,5.30
2023-04-18T20:30:18.617Z,4.18
2023-04-18T20:35:20.816Z,7.93
2023-04-18T20:40:23.016Z,5.45
2023-04-18T20:45:25.319Z,6.15
2023-04-18T20:50:27.888Z,5.07
2023-04-18T20:55:29.992Z,4.53
2023-04-18T21:00:32.069Z,3.90
2023-04-18T21:05:34.234Z,3.37
2023-04-18T21:10:36.393Z,4.10
2023-04-18T21:15:38.645Z,6.35
2023-04-18T21:20:40.701Z,3.37
2023-04-18T21:25:42.828Z,4.63
2023-04-18T21:30:44.918Z,4.57
2023-04-18T21:35:46.977Z,5.47
2023-04-18T21:40:49.035Z,4.40
2023-04-18T21:45:51.132Z,5.10
2023-04-18T21:50:56.582Z,6.05
2023-04-18T21:55:58.687Z,5.28
2023-04-18T22:01:01.183Z,10.53
2023-04-18T22:06:03.378Z,5.47
2023-04-18T22:11:05.559Z,4.28
2023-04-18T22:16:09.349Z,4.27
2023-04-18T22:21:11.770Z,4.20
2023-04-18T22:26:13.958Z,5.22
2023-04-18T22:31:16.163Z,3.30
2023-04-18T22:36:18.231Z,4.67
2023-04-18T22:41:20.413Z,3.42
2023-04-18T22:46:22.770Z,5.07
2023-04-18T22:51:24.862Z,5.80
2023-04-18T22:56:26.938Z,4.47
2023-04-18T23:01:29.098Z,4.15
2023-04-18T23:06:31.526Z,4.97
2023-04-18T23:11:33.569Z,7.05
2023-04-18T23:16:35.645Z,5.20
2023-04-18T23:21:37.681Z,6.07
2023-04-18T23:26:39.726Z,4.00
2023-04-18T23:31:41.844Z,4.53
2023-04-18T23:36:43.933Z,4.60
2023-04-18T23:41:45.984Z,4.27
2023-04-18T23:46:48.476Z,4.53
2023-04-18T23:51:50.606Z,5.10
2023-04-18T23:56:52.765Z,5.23
